sensor_id;sensor_type;location;lat;lon;timestamp;temperature;humidity
66962;HTU21D;53897;51.126;5.868;2024-01-11T00:00:25;21.78;28.45
66962;HTU21D;53897;51.126;5.868;2024-01-11T00:02:50;21.77;28.45
66962;HTU21D;53897;51.126;5.868;2024-01-11T00:05:16;21.74;28.39
66962;HTU21D;53897;51.126;5.868;2024-01-11T00:07:42;21.70;28.36
66962;HTU21D;53897;51.126;5.868;2024-01-11T00:10:08;21.66;28.35
66962;HTU21D;53897;51.126;5.868;2024-01-11T00:12:34;21.65;28.27
66962;HTU21D;53897;51.126;5.868;2024-01-11T00:14:59;21.61;28.26
66962;HTU21D;53897;51.126;5.868;2024-01-11T00:17:25;21.59;28.23
66962;HTU21D;53897;51.126;5.868;2024-01-11T00:19:51;21.55;28.20
66962;HTU21D;53897;51.126;5.868;2024-01-11T00:22:17;21.52;28.17
66962;HTU21D;53897;51.126;5.868;2024-01-11T00:24:46;21.49;28.15
66962;HTU21D;53897;51.126;5.868;2024-01-11T00:27:12;21.47;28.13
66962;HTU21D;53897;51.126;5.868;2024-01-11T00:29:37;21.43;28.14
66962;HTU21D;53897;51.126;5.868;2024-01-11T00:32:03;21.40;28.10
66962;HTU21D;53897;51.126;5.868;2024-01-11T00:34:29;21.37;28.10
66962;HTU21D;53897;51.126;5.868;2024-01-11T00:36:55;21.33;28.09
66962;HTU21D;53897;51.126;5.868;2024-01-11T00:39:20;21.30;28.08
66962;HTU21D;53897;51.126;5.868;2024-01-11T00:41:46;21.28;28.08
66962;HTU21D;53897;51.126;5.868;2024-01-11T00:44:12;21.22;28.06
66962;HTU21D;53897;51.126;5.868;2024-01-11T00:46:37;21.21;28.04
66962;HTU21D;53897;51.126;5.868;2024-01-11T00:49:04;21.16;28.06
66962;HTU21D;53897;51.126;5.868;2024-01-11T00:51:29;21.14;28.06
66962;HTU21D;53897;51.126;5.868;2024-01-11T00:53:55;21.13;28.06
66962;HTU21D;53897;51.126;5.868;2024-01-11T00:56:21;21.07;28.06
66962;HTU21D;53897;51.126;5.868;2024-01-11T00:58:47;21.05;28.05
66962;HTU21D;53897;51.126;5.868;2024-01-11T01:01:13;21.02;28.03
66962;HTU21D;53897;51.126;5.868;2024-01-11T01:03:39;21.00;27.97
66962;HTU21D;53897;51.126;5.868;2024-01-11T01:06:05;20.96;27.95
66962;HTU21D;53897;51.126;5.868;2024-01-11T01:08:31;20.93;27.97
66962;HTU21D;53897;51.126;5.868;2024-01-11T01:10:57;20.90;27.92
66962;HTU21D;53897;51.126;5.868;2024-01-11T01:13:22;20.88;27.87
66962;HTU21D;53897;51.126;5.868;2024-01-11T01:15:48;20.85;27.92
66962;HTU21D;53897;51.126;5.868;2024-01-11T01:18:14;20.83;27.88
66962;HTU21D;53897;51.126;5.868;2024-01-11T01:20:40;20.79;27.84
66962;HTU21D;53897;51.126;5.868;2024-01-11T01:23:06;20.77;27.83
66962;HTU21D;53897;51.126;5.868;2024-01-11T01:25:31;20.74;27.86
66962;HTU21D;53897;51.126;5.868;2024-01-11T01:27:58;20.72;27.82
66962;HTU21D;53897;51.126;5.868;2024-01-11T01:30:25;20.70;27.81
66962;HTU21D;53897;51.126;5.868;2024-01-11T01:32:50;20.66;27.81
66962;HTU21D;53897;51.126;5.868;2024-01-11T01:35:16;20.63;27.82
66962;HTU21D;53897;51.126;5.868;2024-01-11T01:37:42;20.62;27.81
66962;HTU21D;53897;51.126;5.868;2024-01-11T01:40:08;20.59;27.79
66962;HTU21D;53897;51.126;5.868;2024-01-11T01:42:34;20.57;27.78
66962;HTU21D;53897;51.126;5.868;2024-01-11T01:45:00;20.54;27.77
66962;HTU21D;53897;51.126;5.868;2024-01-11T01:47:27;20.50;27.74
66962;HTU21D;53897;51.126;5.868;2024-01-11T01:49:54;20.50;27.74
66962;HTU21D;53897;51.126;5.868;2024-01-11T01:52:22;20.48;27.71
66962;HTU21D;53897;51.126;5.868;2024-01-11T01:54:49;20.45;27.72
66962;HTU21D;53897;51.126;5.868;2024-01-11T01:57:16;20.44;27.71
66962;HTU21D;53897;51.126;5.868;2024-01-11T01:59:45;20.41;27.70
66962;HTU21D;53897;51.126;5.868;2024-01-11T02:02:12;20.40;27.68
66962;HTU21D;53897;51.126;5.868;2024-01-11T02:04:38;20.36;27.70
66962;HTU21D;53897;51.126;5.868;2024-01-11T02:07:05;20.34;27.68
66962;HTU21D;53897;51.126;5.868;2024-01-11T02:09:32;20.32;27.66
66962;HTU21D;53897;51.126;5.868;2024-01-11T02:11:59;20.30;27.65
66962;HTU21D;53897;51.126;5.868;2024-01-11T02:14:26;20.27;27.60
66962;HTU21D;53897;51.126;5.868;2024-01-11T02:16:52;20.25;27.62
66962;HTU21D;53897;51.126;5.868;2024-01-11T02:19:19;20.22;28.21
66962;HTU21D;53897;51.126;5.868;2024-01-11T02:21:46;20.20;28.73
66962;HTU21D;53897;51.126;5.868;2024-01-11T02:24:14;20.17;28.93
66962;HTU21D;53897;51.126;5.868;2024-01-11T02:26:59;20.14;29.02
66962;HTU21D;53897;51.126;5.868;2024-01-11T02:29:26;20.12;29.11
66962;HTU21D;53897;51.126;5.868;2024-01-11T02:31:52;20.09;29.22
66962;HTU21D;53897;51.126;5.868;2024-01-11T02:34:18;20.06;29.29
66962;HTU21D;53897;51.126;5.868;2024-01-11T02:36:45;20.03;29.35
66962;HTU21D;53897;51.126;5.868;2024-01-11T02:39:12;20.02;29.40
66962;HTU21D;53897;51.126;5.868;2024-01-11T02:41:39;19.99;29.48
66962;HTU21D;53897;51.126;5.868;2024-01-11T02:44:05;19.97;29.55
66962;HTU21D;53897;51.126;5.868;2024-01-11T02:46:31;19.94;29.58
66962;HTU21D;53897;51.126;5.868;2024-01-11T02:48:57;19.92;29.61
66962;HTU21D;53897;51.126;5.868;2024-01-11T02:51:22;19.89;29.64
66962;HTU21D;53897;51.126;5.868;2024-01-11T02:53:48;19.87;29.68
66962;HTU21D;53897;51.126;5.868;2024-01-11T02:56:14;19.85;29.72
66962;HTU21D;53897;51.126;5.868;2024-01-11T02:58:39;19.82;29.74
66962;HTU21D;53897;51.126;5.868;2024-01-11T03:01:06;19.80;29.79
66962;HTU21D;53897;51.126;5.868;2024-01-11T03:03:31;19.77;29.80
66962;HTU21D;53897;51.126;5.868;2024-01-11T03:05:57;19.77;29.81
66962;HTU21D;53897;51.126;5.868;2024-01-11T03:08:23;19.74;29.85
66962;HTU21D;53897;51.126;5.868;2024-01-11T03:10:48;19.72;29.85
66962;HTU21D;53897;51.126;5.868;2024-01-11T03:13:14;19.71;29.88
66962;HTU21D;53897;51.126;5.868;2024-01-11T03:15:40;19.70;29.90
66962;HTU21D;53897;51.126;5.868;2024-01-11T03:18:06;19.70;29.95
66962;HTU21D;53897;51.126;5.868;2024-01-11T03:20:31;19.72;29.97
66962;HTU21D;53897;51.126;5.868;2024-01-11T03:22:57;19.75;29.96
66962;HTU21D;53897;51.126;5.868;2024-01-11T03:25:23;19.79;29.96
66962;HTU21D;53897;51.126;5.868;2024-01-11T03:27:48;19.82;29.98
66962;HTU21D;53897;51.126;5.868;2024-01-11T03:30:14;19.86;29.99
66962;HTU21D;53897;51.126;5.868;2024-01-11T03:32:41;19.91;30.00
66962;HTU21D;53897;51.126;5.868;2024-01-11T03:35:08;19.95;30.00
66962;HTU21D;53897;51.126;5.868;2024-01-11T03:37:34;19.98;30.02
66962;HTU21D;53897;51.126;5.868;2024-01-11T03:40:02;20.01;30.02
66962;HTU21D;53897;51.126;5.868;2024-01-11T03:42:28;20.04;30.02
66962;HTU21D;53897;51.126;5.868;2024-01-11T03:44:54;20.06;30.03
66962;HTU21D;53897;51.126;5.868;2024-01-11T03:47:19;20.10;30.04
66962;HTU21D;53897;51.126;5.868;2024-01-11T03:49:45;20.11;30.04
66962;HTU21D;53897;51.126;5.868;2024-01-11T03:52:11;20.14;30.05
66962;HTU21D;53897;51.126;5.868;2024-01-11T03:54:37;20.15;30.07
66962;HTU21D;53897;51.126;5.868;2024-01-11T03:57:02;20.17;30.08
66962;HTU21D;53897;51.126;5.868;2024-01-11T03:59:28;20.18;30.09
66962;HTU21D;53897;51.126;5.868;2024-01-11T04:01:55;20.19;30.12
66962;HTU21D;53897;51.126;5.868;2024-01-11T04:04:21;20.20;30.12
66962;HTU21D;53897;51.126;5.868;2024-01-11T04:06:48;20.21;30.13
66962;HTU21D;53897;51.126;5.868;2024-01-11T04:09:14;20.21;30.14
66962;HTU21D;53897;51.126;5.868;2024-01-11T04:11:39;20.22;30.14
66962;HTU21D;53897;51.126;5.868;2024-01-11T04:14:05;20.21;30.18
66962;HTU21D;53897;51.126;5.868;2024-01-11T04:16:32;20.21;30.19
66962;HTU21D;53897;51.126;5.868;2024-01-11T04:18:57;20.22;30.18
66962;HTU21D;53897;51.126;5.868;2024-01-11T04:21:24;20.21;30.18
66962;HTU21D;53897;51.126;5.868;2024-01-11T04:23:51;20.22;30.18
66962;HTU21D;53897;51.126;5.868;2024-01-11T04:26:17;20.21;30.16
66962;HTU21D;53897;51.126;5.868;2024-01-11T04:28:46;20.21;30.17
66962;HTU21D;53897;51.126;5.868;2024-01-11T04:31:14;20.19;30.19
66962;HTU21D;53897;51.126;5.868;2024-01-11T04:33:43;20.20;30.18
66962;HTU21D;53897;51.126;5.868;2024-01-11T04:36:10;20.18;30.20
66962;HTU21D;53897;51.126;5.868;2024-01-11T04:38:36;20.18;30.21
66962;HTU21D;53897;51.126;5.868;2024-01-11T04:41:09;20.17;30.21
66962;HTU21D;53897;51.126;5.868;2024-01-11T04:43:39;20.17;30.19
66962;HTU21D;53897;51.126;5.868;2024-01-11T04:48:40;20.15;30.16
66962;HTU21D;53897;51.126;5.868;2024-01-11T04:51:06;20.14;30.18
66962;HTU21D;53897;51.126;5.868;2024-01-11T04:53:31;20.13;30.18
66962;HTU21D;53897;51.126;5.868;2024-01-11T04:55:57;20.13;30.18
66962;HTU21D;53897;51.126;5.868;2024-01-11T04:58:23;20.10;30.18
66962;HTU21D;53897;51.126;5.868;2024-01-11T05:00:49;20.10;30.16
66962;HTU21D;53897;51.126;5.868;2024-01-11T05:03:15;20.10;30.16
66962;HTU21D;53897;51.126;5.868;2024-01-11T05:05:40;20.07;30.18
66962;HTU21D;53897;51.126;5.868;2024-01-11T05:08:06;20.06;30.18
66962;HTU21D;53897;51.126;5.868;2024-01-11T05:10:32;20.05;30.19
66962;HTU21D;53897;51.126;5.868;2024-01-11T05:12:58;20.04;30.20
66962;HTU21D;53897;51.126;5.868;2024-01-11T05:15:23;20.03;30.20
66962;HTU21D;53897;51.126;5.868;2024-01-11T05:17:49;20.01;30.21
66962;HTU21D;53897;51.126;5.868;2024-01-11T05:20:15;20.01;30.20
66962;HTU21D;53897;51.126;5.868;2024-01-11T05:22:40;19.98;30.22
66962;HTU21D;53897;51.126;5.868;2024-01-11T05:25:06;19.97;30.23
66962;HTU21D;53897;51.126;5.868;2024-01-11T05:27:32;19.94;30.22
66962;HTU21D;53897;51.126;5.868;2024-01-11T05:29:58;19.94;30.25
66962;HTU21D;53897;51.126;5.868;2024-01-11T05:32:23;19.91;30.24
66962;HTU21D;53897;51.126;5.868;2024-01-11T05:34:49;19.90;30.26
66962;HTU21D;53897;51.126;5.868;2024-01-11T05:37:15;19.88;30.24
66962;HTU21D;53897;51.126;5.868;2024-01-11T05:39:41;19.90;30.25
66962;HTU21D;53897;51.126;5.868;2024-01-11T05:42:06;19.88;30.25
66962;HTU21D;53897;51.126;5.868;2024-01-11T05:44:32;19.86;30.25
66962;HTU21D;53897;51.126;5.868;2024-01-11T05:46:58;19.83;30.26
66962;HTU21D;53897;51.126;5.868;2024-01-11T05:49:24;19.83;30.25
66962;HTU21D;53897;51.126;5.868;2024-01-11T05:51:49;19.81;30.26
66962;HTU21D;53897;51.126;5.868;2024-01-11T05:54:15;19.79;30.27
66962;HTU21D;53897;51.126;5.868;2024-01-11T05:56:41;19.77;30.25
66962;HTU21D;53897;51.126;5.868;2024-01-11T05:59:06;19.77;30.00
66962;HTU21D;53897;51.126;5.868;2024-01-11T06:01:32;19.73;29.45
66962;HTU21D;53897;51.126;5.868;2024-01-11T06:03:58;19.71;29.45
66962;HTU21D;53897;51.126;5.868;2024-01-11T06:06:23;19.72;29.58
66962;HTU21D;53897;51.126;5.868;2024-01-11T06:08:49;19.71;29.65
66962;HTU21D;53897;51.126;5.868;2024-01-11T06:11:15;19.74;29.67
66962;HTU21D;53897;51.126;5.868;2024-01-11T06:13:43;19.79;29.69
66962;HTU21D;53897;51.126;5.868;2024-01-11T06:16:09;19.83;29.69
66962;HTU21D;53897;51.126;5.868;2024-01-11T06:18:35;19.88;29.74
66962;HTU21D;53897;51.126;5.868;2024-01-11T06:21:00;19.92;29.74
66962;HTU21D;53897;51.126;5.868;2024-01-11T06:23:26;19.97;29.76
66962;HTU21D;53897;51.126;5.868;2024-01-11T06:25:52;20.03;29.77
66962;HTU21D;53897;51.126;5.868;2024-01-11T06:28:17;20.10;29.71
66962;HTU21D;53897;51.126;5.868;2024-01-11T06:30:43;20.16;29.68
66962;HTU21D;53897;51.126;5.868;2024-01-11T06:33:09;20.22;29.67
66962;HTU21D;53897;51.126;5.868;2024-01-11T06:35:35;20.30;29.67
66962;HTU21D;53897;51.126;5.868;2024-01-11T06:38:00;20.35;29.66
66962;HTU21D;53897;51.126;5.868;2024-01-11T06:40:26;20.43;29.69
66962;HTU21D;53897;51.126;5.868;2024-01-11T06:42:52;20.48;29.68
66962;HTU21D;53897;51.126;5.868;2024-01-11T06:45:18;20.56;29.68
66962;HTU21D;53897;51.126;5.868;2024-01-11T06:47:44;20.62;29.58
66962;HTU21D;53897;51.126;5.868;2024-01-11T06:50:12;20.69;29.58
66962;HTU21D;53897;51.126;5.868;2024-01-11T06:52:38;20.77;29.55
66962;HTU21D;53897;51.126;5.868;2024-01-11T06:55:04;20.83;29.47
66962;HTU21D;53897;51.126;5.868;2024-01-11T06:57:30;20.90;29.44
66962;HTU21D;53897;51.126;5.868;2024-01-11T06:59:56;20.95;29.29
66962;HTU21D;53897;51.126;5.868;2024-01-11T07:02:22;21.02;29.20
66962;HTU21D;53897;51.126;5.868;2024-01-11T07:04:47;21.07;29.19
66962;HTU21D;53897;51.126;5.868;2024-01-11T07:07:13;21.13;29.20
66962;HTU21D;53897;51.126;5.868;2024-01-11T07:09:39;21.18;29.19
66962;HTU21D;53897;51.126;5.868;2024-01-11T07:12:05;21.20;29.10
66962;HTU21D;53897;51.126;5.868;2024-01-11T07:14:31;21.22;29.00
66962;HTU21D;53897;51.126;5.868;2024-01-11T07:16:57;21.25;29.01
66962;HTU21D;53897;51.126;5.868;2024-01-11T07:19:23;21.30;28.98
66962;HTU21D;53897;51.126;5.868;2024-01-11T07:21:49;21.33;28.92
66962;HTU21D;53897;51.126;5.868;2024-01-11T07:24:15;21.35;28.98
66962;HTU21D;53897;51.126;5.868;2024-01-11T07:26:41;21.38;29.00
66962;HTU21D;53897;51.126;5.868;2024-01-11T07:29:07;21.42;28.96
66962;HTU21D;53897;51.126;5.868;2024-01-11T07:31:32;21.47;29.06
66962;HTU21D;53897;51.126;5.868;2024-01-11T07:33:59;21.49;29.02
66962;HTU21D;53897;51.126;5.868;2024-01-11T07:36:25;21.53;29.05
66962;HTU21D;53897;51.126;5.868;2024-01-11T07:38:51;21.58;29.16
66962;HTU21D;53897;51.126;5.868;2024-01-11T07:41:16;21.61;29.21
66962;HTU21D;53897;51.126;5.868;2024-01-11T07:43:42;21.65;29.21
66962;HTU21D;53897;51.126;5.868;2024-01-11T07:46:08;21.67;29.16
66962;HTU21D;53897;51.126;5.868;2024-01-11T07:48:35;21.70;29.08
66962;HTU21D;53897;51.126;5.868;2024-01-11T07:51:00;21.73;28.59
66962;HTU21D;53897;51.126;5.868;2024-01-11T07:53:26;21.74;28.31
66962;HTU21D;53897;51.126;5.868;2024-01-11T07:55:52;21.74;28.19
66962;HTU21D;53897;51.126;5.868;2024-01-11T07:58:18;21.74;28.28
66962;HTU21D;53897;51.126;5.868;2024-01-11T08:00:44;21.77;28.34
66962;HTU21D;53897;51.126;5.868;2024-01-11T08:03:10;21.80;28.44
66962;HTU21D;53897;51.126;5.868;2024-01-11T08:05:36;21.84;28.44
66962;HTU21D;53897;51.126;5.868;2024-01-11T08:08:02;21.85;28.39
66962;HTU21D;53897;51.126;5.868;2024-01-11T08:10:29;21.87;28.26
66962;HTU21D;53897;51.126;5.868;2024-01-11T08:12:56;21.89;28.27
66962;HTU21D;53897;51.126;5.868;2024-01-11T08:15:22;21.91;28.37
66962;HTU21D;53897;51.126;5.868;2024-01-11T08:17:48;21.93;28.42
66962;HTU21D;53897;51.126;5.868;2024-01-11T08:20:14;21.96;28.55
66962;HTU21D;53897;51.126;5.868;2024-01-11T08:22:41;21.94;28.61
66962;HTU21D;53897;51.126;5.868;2024-01-11T08:25:09;21.95;28.62
66962;HTU21D;53897;51.126;5.868;2024-01-11T08:27:35;21.91;28.70
66962;HTU21D;53897;51.126;5.868;2024-01-11T08:30:01;21.91;28.68
66962;HTU21D;53897;51.126;5.868;2024-01-11T08:32:27;21.91;28.58
66962;HTU21D;53897;51.126;5.868;2024-01-11T08:34:54;21.93;28.60
66962;HTU21D;53897;51.126;5.868;2024-01-11T08:37:20;21.94;28.58
66962;HTU21D;53897;51.126;5.868;2024-01-11T08:39:45;21.96;28.58
66962;HTU21D;53897;51.126;5.868;2024-01-11T08:42:12;21.97;28.40
66962;HTU21D;53897;51.126;5.868;2024-01-11T08:44:43;21.99;28.32
66962;HTU21D;53897;51.126;5.868;2024-01-11T08:47:10;22.01;28.39
66962;HTU21D;53897;51.126;5.868;2024-01-11T08:49:38;22.03;28.43
66962;HTU21D;53897;51.126;5.868;2024-01-11T08:52:05;22.05;28.55
66962;HTU21D;53897;51.126;5.868;2024-01-11T08:54:31;22.06;28.59
66962;HTU21D;53897;51.126;5.868;2024-01-11T08:57:01;22.09;28.66
66962;HTU21D;53897;51.126;5.868;2024-01-11T08:59:27;22.11;28.71
66962;HTU21D;53897;51.126;5.868;2024-01-11T09:01:52;22.12;28.74
66962;HTU21D;53897;51.126;5.868;2024-01-11T09:04:18;22.13;28.73
66962;HTU21D;53897;51.126;5.868;2024-01-11T09:06:44;22.16;28.71
66962;HTU21D;53897;51.126;5.868;2024-01-11T09:09:11;22.16;28.77
66962;HTU21D;53897;51.126;5.868;2024-01-11T09:11:40;22.19;28.73
66962;HTU21D;53897;51.126;5.868;2024-01-11T09:14:08;22.20;28.77
66962;HTU21D;53897;51.126;5.868;2024-01-11T09:16:38;22.22;28.74
66962;HTU21D;53897;51.126;5.868;2024-01-11T09:19:05;22.23;28.80
66962;HTU21D;53897;51.126;5.868;2024-01-11T09:21:31;22.24;28.70
66962;HTU21D;53897;51.126;5.868;2024-01-11T09:23:57;22.25;28.74
66962;HTU21D;53897;51.126;5.868;2024-01-11T09:26:23;22.26;28.77
66962;HTU21D;53897;51.126;5.868;2024-01-11T09:28:49;22.27;28.99
66962;HTU21D;53897;51.126;5.868;2024-01-11T09:31:14;22.27;29.27
66962;HTU21D;53897;51.126;5.868;2024-01-11T09:33:40;22.31;29.56
66962;HTU21D;53897;51.126;5.868;2024-01-11T09:36:08;22.33;30.38
66962;HTU21D;53897;51.126;5.868;2024-01-11T09:38:33;22.35;30.73
66962;HTU21D;53897;51.126;5.868;2024-01-11T09:41:08;22.36;31.21
66962;HTU21D;53897;51.126;5.868;2024-01-11T09:43:35;22.40;31.36
66962;HTU21D;53897;51.126;5.868;2024-01-11T09:46:05;22.42;31.45
66962;HTU21D;53897;51.126;5.868;2024-01-11T09:48:35;22.43;31.46
66962;HTU21D;53897;51.126;5.868;2024-01-11T09:51:02;22.46;31.45
66962;HTU21D;53897;51.126;5.868;2024-01-11T09:53:33;22.49;31.51
66962;HTU21D;53897;51.126;5.868;2024-01-11T09:56:00;22.52;31.51
66962;HTU21D;53897;51.126;5.868;2024-01-11T09:58:26;22.54;31.60
66962;HTU21D;53897;51.126;5.868;2024-01-11T10:00:55;22.56;31.57
66962;HTU21D;53897;51.126;5.868;2024-01-11T10:03:23;22.58;31.52
66962;HTU21D;53897;51.126;5.868;2024-01-11T10:05:55;22.61;31.46
66962;HTU21D;53897;51.126;5.868;2024-01-11T10:08:22;22.65;31.36
66962;HTU21D;53897;51.126;5.868;2024-01-11T10:10:48;22.66;31.28
66962;HTU21D;53897;51.126;5.868;2024-01-11T10:13:14;22.67;31.26
66962;HTU21D;53897;51.126;5.868;2024-01-11T10:15:40;22.69;31.22
66962;HTU21D;53897;51.126;5.868;2024-01-11T10:18:06;22.71;31.20
66962;HTU21D;53897;51.126;5.868;2024-01-11T10:20:31;22.73;31.15
66962;HTU21D;53897;51.126;5.868;2024-01-11T10:22:57;22.76;31.11
66962;HTU21D;53897;51.126;5.868;2024-01-11T10:25:24;22.77;30.90
66962;HTU21D;53897;51.126;5.868;2024-01-11T10:27:50;22.78;30.87
66962;HTU21D;53897;51.126;5.868;2024-01-11T10:30:16;22.79;30.89
66962;HTU21D;53897;51.126;5.868;2024-01-11T10:32:43;22.81;30.87
66962;HTU21D;53897;51.126;5.868;2024-01-11T10:35:09;22.83;30.83
66962;HTU21D;53897;51.126;5.868;2024-01-11T10:37:36;22.84;30.55
66962;HTU21D;53897;51.126;5.868;2024-01-11T10:40:06;22.86;30.46
66962;HTU21D;53897;51.126;5.868;2024-01-11T10:42:51;22.88;30.35
66962;HTU21D;53897;51.126;5.868;2024-01-11T10:45:20;22.90;30.36
66962;HTU21D;53897;51.126;5.868;2024-01-11T10:47:56;22.92;30.28
66962;HTU21D;53897;51.126;5.868;2024-01-11T10:50:25;22.94;30.29
66962;HTU21D;53897;51.126;5.868;2024-01-11T10:53:04;22.96;30.29
66962;HTU21D;53897;51.126;5.868;2024-01-11T10:55:35;22.96;29.94
66962;HTU21D;53897;51.126;5.868;2024-01-11T10:58:02;22.97;30.06
66962;HTU21D;53897;51.126;5.868;2024-01-11T11:00:31;23.00;30.15
66962;HTU21D;53897;51.126;5.868;2024-01-11T11:02:59;23.01;30.17
66962;HTU21D;53897;51.126;5.868;2024-01-11T11:05:27;23.02;30.19
66962;HTU21D;53897;51.126;5.868;2024-01-11T11:07:55;23.03;30.13
66962;HTU21D;53897;51.126;5.868;2024-01-11T11:10:22;23.07;30.06
66962;HTU21D;53897;51.126;5.868;2024-01-11T11:12:48;23.07;30.02
66962;HTU21D;53897;51.126;5.868;2024-01-11T11:15:15;23.10;29.95
66962;HTU21D;53897;51.126;5.868;2024-01-11T11:17:42;23.11;29.87
66962;HTU21D;53897;51.126;5.868;2024-01-11T11:20:10;23.12;29.84
66962;HTU21D;53897;51.126;5.868;2024-01-11T11:22:40;23.13;29.80
66962;HTU21D;53897;51.126;5.868;2024-01-11T11:25:10;23.14;29.87
66962;HTU21D;53897;51.126;5.868;2024-01-11T11:27:38;23.16;29.73
66962;HTU21D;53897;51.126;5.868;2024-01-11T11:30:05;23.16;29.79
66962;HTU21D;53897;51.126;5.868;2024-01-11T11:32:38;23.17;29.84
66962;HTU21D;53897;51.126;5.868;2024-01-11T11:35:08;23.18;29.85
66962;HTU21D;53897;51.126;5.868;2024-01-11T11:37:36;23.21;29.88
66962;HTU21D;53897;51.126;5.868;2024-01-11T11:40:07;23.22;29.90
66962;HTU21D;53897;51.126;5.868;2024-01-11T11:42:34;23.25;29.92
66962;HTU21D;53897;51.126;5.868;2024-01-11T11:45:01;23.27;29.90
66962;HTU21D;53897;51.126;5.868;2024-01-11T11:47:34;23.28;29.93
66962;HTU21D;53897;51.126;5.868;2024-01-11T11:50:07;23.29;29.94
66962;HTU21D;53897;51.126;5.868;2024-01-11T11:52:35;23.30;29.90
66962;HTU21D;53897;51.126;5.868;2024-01-11T11:55:01;23.31;29.86
66962;HTU21D;53897;51.126;5.868;2024-01-11T11:57:28;23.34;29.82
66962;HTU21D;53897;51.126;5.868;2024-01-11T11:59:57;23.36;29.79
66962;HTU21D;53897;51.126;5.868;2024-01-11T12:02:36;23.37;29.80
66962;HTU21D;53897;51.126;5.868;2024-01-11T12:05:02;23.39;29.76
66962;HTU21D;53897;51.126;5.868;2024-01-11T12:07:29;23.40;29.64
66962;HTU21D;53897;51.126;5.868;2024-01-11T12:09:55;23.41;29.53
66962;HTU21D;53897;51.126;5.868;2024-01-11T12:12:21;23.43;29.58
66962;HTU21D;53897;51.126;5.868;2024-01-11T12:14:47;23.43;29.58
66962;HTU21D;53897;51.126;5.868;2024-01-11T12:17:14;23.44;29.57
66962;HTU21D;53897;51.126;5.868;2024-01-11T12:19:40;23.46;29.50
66962;HTU21D;53897;51.126;5.868;2024-01-11T12:22:05;23.49;29.39
66962;HTU21D;53897;51.126;5.868;2024-01-11T12:24:31;23.49;29.34
66962;HTU21D;53897;51.126;5.868;2024-01-11T12:26:59;23.51;29.34
66962;HTU21D;53897;51.126;5.868;2024-01-11T12:29:28;23.52;29.39
66962;HTU21D;53897;51.126;5.868;2024-01-11T12:31:59;23.53;29.43
66962;HTU21D;53897;51.126;5.868;2024-01-11T12:34:28;23.54;29.49
66962;HTU21D;53897;51.126;5.868;2024-01-11T12:36:55;23.56;29.60
66962;HTU21D;53897;51.126;5.868;2024-01-11T12:39:24;23.58;29.73
66962;HTU21D;53897;51.126;5.868;2024-01-11T12:41:52;23.59;29.86
66962;HTU21D;53897;51.126;5.868;2024-01-11T12:44:18;23.61;29.96
66962;HTU21D;53897;51.126;5.868;2024-01-11T12:46:47;23.62;30.04
66962;HTU21D;53897;51.126;5.868;2024-01-11T12:49:13;23.64;30.06
66962;HTU21D;53897;51.126;5.868;2024-01-11T12:51:39;23.64;30.11
66962;HTU21D;53897;51.126;5.868;2024-01-11T12:54:13;23.66;30.13
66962;HTU21D;53897;51.126;5.868;2024-01-11T12:56:43;23.66;30.12
66962;HTU21D;53897;51.126;5.868;2024-01-11T12:59:10;23.67;30.09
66962;HTU21D;53897;51.126;5.868;2024-01-11T13:01:38;23.65;30.09
66962;HTU21D;53897;51.126;5.868;2024-01-11T13:04:04;23.67;30.12
66962;HTU21D;53897;51.126;5.868;2024-01-11T13:06:31;23.68;30.16
66962;HTU21D;53897;51.126;5.868;2024-01-11T13:08:58;23.68;30.22
66962;HTU21D;53897;51.126;5.868;2024-01-11T13:11:24;23.70;30.25
66962;HTU21D;53897;51.126;5.868;2024-01-11T13:13:51;23.71;30.29
66962;HTU21D;53897;51.126;5.868;2024-01-11T13:16:19;23.72;30.25
66962;HTU21D;53897;51.126;5.868;2024-01-11T13:18:46;23.72;30.25
66962;HTU21D;53897;51.126;5.868;2024-01-11T13:21:12;23.73;30.25
66962;HTU21D;53897;51.126;5.868;2024-01-11T13:23:38;23.74;30.25
66962;HTU21D;53897;51.126;5.868;2024-01-11T13:26:05;23.74;30.21
66962;HTU21D;53897;51.126;5.868;2024-01-11T13:28:32;23.75;30.16
66962;HTU21D;53897;51.126;5.868;2024-01-11T13:30:59;23.76;30.12
66962;HTU21D;53897;51.126;5.868;2024-01-11T13:33:25;23.76;30.09
66962;HTU21D;53897;51.126;5.868;2024-01-11T13:35:51;23.77;30.08
66962;HTU21D;53897;51.126;5.868;2024-01-11T13:38:17;23.79;30.05
66962;HTU21D;53897;51.126;5.868;2024-01-11T13:40:43;23.80;30.03
66962;HTU21D;53897;51.126;5.868;2024-01-11T13:43:09;23.81;29.99
66962;HTU21D;53897;51.126;5.868;2024-01-11T13:45:36;23.80;29.97
66962;HTU21D;53897;51.126;5.868;2024-01-11T13:48:03;23.82;29.93
66962;HTU21D;53897;51.126;5.868;2024-01-11T13:50:29;23.82;29.92
66962;HTU21D;53897;51.126;5.868;2024-01-11T13:52:55;23.83;29.89
66962;HTU21D;53897;51.126;5.868;2024-01-11T13:55:21;23.84;29.86
66962;HTU21D;53897;51.126;5.868;2024-01-11T13:57:49;23.84;29.81
66962;HTU21D;53897;51.126;5.868;2024-01-11T14:00:15;23.84;29.73
66962;HTU21D;53897;51.126;5.868;2024-01-11T14:02:43;23.84;29.65
66962;HTU21D;53897;51.126;5.868;2024-01-11T14:05:10;23.85;29.51
66962;HTU21D;53897;51.126;5.868;2024-01-11T14:07:39;23.82;29.41
66962;HTU21D;53897;51.126;5.868;2024-01-11T14:10:06;23.84;28.90
66962;HTU21D;53897;51.126;5.868;2024-01-11T14:12:34;23.79;27.34
66962;HTU21D;53897;51.126;5.868;2024-01-11T14:15:02;23.69;25.51
66962;HTU21D;53897;51.126;5.868;2024-01-11T14:17:28;23.56;24.51
66962;HTU21D;53897;51.126;5.868;2024-01-11T14:19:54;23.49;24.64
66962;HTU21D;53897;51.126;5.868;2024-01-11T14:22:19;23.46;25.11
66962;HTU21D;53897;51.126;5.868;2024-01-11T14:24:45;23.49;25.66
66962;HTU21D;53897;51.126;5.868;2024-01-11T14:27:11;23.51;25.80
66962;HTU21D;53897;51.126;5.868;2024-01-11T14:29:36;23.52;25.89
66962;HTU21D;53897;51.126;5.868;2024-01-11T14:32:02;23.54;25.97
66962;HTU21D;53897;51.126;5.868;2024-01-11T14:34:28;23.55;26.06
66962;HTU21D;53897;51.126;5.868;2024-01-11T14:36:54;23.58;26.10
66962;HTU21D;53897;51.126;5.868;2024-01-11T14:39:19;23.59;26.14
66962;HTU21D;53897;51.126;5.868;2024-01-11T14:41:45;23.60;26.22
66962;HTU21D;53897;51.126;5.868;2024-01-11T14:44:11;23.64;26.36
66962;HTU21D;53897;51.126;5.868;2024-01-11T14:46:36;23.62;26.47
66962;HTU21D;53897;51.126;5.868;2024-01-11T14:49:02;23.64;26.52
66962;HTU21D;53897;51.126;5.868;2024-01-11T14:51:29;23.64;26.62
66962;HTU21D;53897;51.126;5.868;2024-01-11T14:53:59;23.64;26.71
66962;HTU21D;53897;51.126;5.868;2024-01-11T14:56:26;23.66;26.79
66962;HTU21D;53897;51.126;5.868;2024-01-11T14:58:51;23.66;26.84
66962;HTU21D;53897;51.126;5.868;2024-01-11T15:01:17;23.67;26.92
66962;HTU21D;53897;51.126;5.868;2024-01-11T15:03:43;23.68;27.00
66962;HTU21D;53897;51.126;5.868;2024-01-11T15:06:09;23.67;26.95
66962;HTU21D;53897;51.126;5.868;2024-01-11T15:08:35;23.67;27.09
66962;HTU21D;53897;51.126;5.868;2024-01-11T15:11:01;23.67;27.15
66962;HTU21D;53897;51.126;5.868;2024-01-11T15:13:26;23.67;27.23